Time;durP1;ratioP1;P1;durP2;ratioP2;P2;SDS_P1;SDS_P2;PMS_P1;PMS_P2;Temp;Humidity;BMP_temperature;BMP_pressure;BME280_temperature;BME280_humidity;BME280_pressure;Samples;Min_cycle;Max_cycle;Signal;HPM_P1;HPM_P2
2021/08/02 00:29:48;;;;;;;;;;;;;;;15.71;89.39;99611.41;21865819;78;99630;-91
2021/08/02 00:59:56;;;;;;;14.20;9.80;;;;;;;15.53;91.18;99624.86;21586922;78;84879;-92
2021/08/02 01:30:18;;;;;;;12.70;8.70;;;;;;;15.27;90.51;99610.53;21382455;79;99515;-91
2021/08/02 02:00:19;;;;;;;16.23;9.00;;;;;;;15.02;90.46;99617.20;21529586;79;99483;-94
2021/08/02 02:30:20;;;;;;;14.03;8.97;;;;;;;14.80;90.91;99636.02;21620156;79;99222;-93
2021/08/02 03:00:21;;;;;;;12.98;8.98;;;;;;;14.75;91.66;99648.98;21695610;79;99541;-96
2021/08/02 03:30:23;;;;;;;13.38;9.38;;;;;;;14.79;92.94;99675.43;21786787;79;99660;-94
2021/08/02 04:00:24;;;;;;;13.28;8.15;;;;;;;14.93;93.15;99711.80;21674390;78;99254;-93
2021/08/02 04:30:25;;;;;;;11.93;7.00;;;;;;;14.99;92.57;99717.79;21625566;79;99525;-92
2021/08/02 05:00:25;;;;;;;12.00;7.17;;;;;;;14.97;92.06;99751.28;21606032;77;99795;-89
2021/08/02 05:30:27;;;;;;;14.23;8.43;;;;;;;15.18;93.08;99791.09;21296325;79;99168;-90
2021/08/02 06:00:28;;;;;;;12.03;8.73;;;;;;;15.66;92.36;99805.28;21406655;79;99259;-91
2021/08/02 06:30:29;;;;;;;8.80;5.78;;;;;;;16.34;90.82;99825.08;21858349;78;99691;-90
2021/08/02 07:00:39;;;;;;;9.03;4.70;;;;;;;17.81;87.59;99844.30;22178192;74;33002;-82
2021/08/02 07:30:41;;;;;;;8.20;2.00;;;;;;;19.75;80.44;99859.54;21689822;78;99286;-82
2021/08/02 08:00:42;;;;;;;5.15;2.30;;;;;;;20.17;73.87;99885.95;21619698;78;99053;-80
2021/08/02 08:30:43;;;;;;;5.12;2.50;;;;;;;20.03;73.33;99900.42;21650590;78;99446;-81
2021/08/02 09:00:44;;;;;;;6.70;1.98;;;;;;;20.77;70.15;99909.64;21439006;80;99315;-81
2021/08/02 09:31:04;;;;;;;3.10;1.67;;;;;;;21.61;66.93;99930.06;21705997;79;99292;-82
2021/08/02 10:01:05;;;;;;;2.83;1.65;;;;;;;21.40;63.79;99953.33;21587971;80;99412;-82
2021/08/02 10:31:08;;;;;;;3.52;1.75;;;;;;;22.56;61.96;99961.77;21442715;79;99684;-82
2021/08/02 11:01:13;;;;;;;5.60;1.40;;;;;;;;;;22031134;78;99395;-83
2021/08/02 11:31:15;;;;;;;2.58;1.17;;;;;;;;;;21793095;79;72265;-81
2021/08/02 12:01:17;;;;;;;9.35;1.25;;;;;;;24.49;50.44;99967.12;22130793;78;72453;-82
2021/08/02 12:31:26;;;;;;;2.95;0.90;;;;;;;25.34;44.80;99958.42;22109700;78;99383;-81
2021/08/02 13:01:23;;;;;;;2.33;1.02;;;;;;;24.73;45.08;99967.84;22308627;77;99158;-83
2021/08/02 13:31:24;;;;;;;3.40;1.02;;;;;;;25.36;41.12;99958.72;22281244;77;99118;-82
2021/08/02 14:01:26;;;;;;;3.70;1.20;;;;;;;24.96;41.86;99952.14;22290879;77;99332;-82
2021/08/02 14:31:27;;;;;;;4.50;1.30;;;;;;;24.23;43.18;99934.36;22268428;77;99391;-82
2021/08/02 15:01:31;;;;;;;4.25;1.50;;;;;;;23.88;42.04;99931.38;22314099;77;99200;-82
2021/08/02 15:31:35;;;;;;;10.72;1.85;;;;;;;23.75;40.42;99927.22;22302700;77;99461;-81
2021/08/02 16:01:38;;;;;;;2.52;1.32;;;;;;;23.18;40.66;99960.11;22384508;77;99521;-83
2021/08/02 16:31:38;;;;;;;5.45;1.40;;;;;;;22.83;41.88;99978.56;22395324;77;99370;-82
2021/08/02 17:01:40;;;;;;;6.33;1.90;;;;;;;22.43;42.07;99994.80;21909917;77;99466;-82
2021/08/02 17:31:40;;;;;;;2.40;1.10;;;;;;;21.79;44.32;100015.56;21917307;79;99384;-82
2021/08/02 18:01:41;;;;;;;4.95;1.40;;;;;;;21.33;46.52;100041.02;21498377;80;99634;-82
2021/08/02 18:31:43;;;;;;;3.55;1.50;;;;;;;20.81;47.06;100067.56;21717671;78;99723;-82
2021/08/02 19:01:43;;;;;;;3.67;1.33;;;;;;;20.21;48.29;100090.61;21276291;80;99778;-82
2021/08/02 19:31:44;;;;;;;5.50;1.20;;;;;;;19.46;49.79;100107.97;21663605;79;99628;-81
2021/08/02 20:01:45;;;;;;;3.42;1.02;;;;;;;18.82;51.19;100129.11;21338754;80;99508;-83
2021/08/02 20:31:46;;;;;;;3.43;1.00;;;;;;;18.31;51.93;100148.91;21659777;79;99637;-83
2021/08/02 21:01:59;;;;;;;2.40;1.03;;;;;;;17.91;53.17;100173.16;21395788;80;99623;-82
2021/08/02 21:32:00;;;;;;;4.45;0.80;;;;;;;17.24;55.26;100185.71;21172162;80;99551;-83
2021/08/02 22:02:01;;;;;;;3.47;1.03;;;;;;;16.54;58.28;100197.32;21240417;81;99670;-81
2021/08/02 22:32:02;;;;;;;5.53;1.60;;;;;;;16.18;60.46;100212.34;21720637;79;99514;-81
2021/08/02 23:02:11;;;;;;;2.90;1.50;;;;;;;15.50;62.96;100226.17;22176749;78;99202;-82
2021/08/02 23:32:15;;;;;;;3.92;1.45;;;;;;;14.74;65.51;100223.00;22269733;78;99176;-82
